Currently 65°F in Lake Elsinore, California, USA
65°F
65°F / 50°F
11 mph SW
0.00"
Wednesday, May 22, 2019 1:50 PM PDT

Lake Elsinore, California Weather Summary
Last 36 Hours

Temperature Winds Hourly Humidity Dewpoint
Time Report Norm Report Norm Max Gusts Precip. Rpt. Norm Rpt. Norm Pressure
1,2Wed 01:50 PM  65.2°F  80°F  11 mph SW  4 mph  25 mph  0.00"  42%  44%  40°F  55°F  29.73"
Wed 01:00 PM  61.7°F  78°F  14 mph S  3 mph  21 mph  0.00"  48%  46%  41°F  55°F  29.74"
Wed 12:00 PM  63.3°F  75°F  10 mph S  3 mph  22 mph  0.00"  45%  51%  41°F  55°F  29.74"
Wed 11:00 AM  61.5°F  72°F  calm  3 mph  none  0.00"  50%  57%  42°F  55°F  29.74"
Wed 10:00 AM  60.5°F  68°F  calm  2 mph  none  0.00"  60%  64%  46°F  55°F  29.74"
Wed 09:00 AM  61.0°F  64°F  calm  2 mph  none  0.00"  54%  74%  44°F  55°F  29.75"
Wed 08:00 AM  59.7°F  60°F  calm  1 mph  none  0.00"  60%  83%  45°F  55°F  29.75"
Wed 07:00 AM  53.6°F  57°F  calm  1 mph  none  0.00"  75%  89%  46°F  53°F  29.74"
Wed 06:00 AM  52.6°F  55°F  calm  1 mph  none  0.00"  76%  89%  45°F  52°F  29.73"
Wed 05:00 AM  51.5°F  56°F  calm  1 mph  none  0.00"  78%  88%  44°F  52°F  29.72"
3Wed 04:19 AM  50.3°F  56°F  calm  1 mph  none  ----  79%  87%  44°F  52°F  29.72"
Wed 04:00 AM  50.5°F  56°F  calm  1 mph  none  0.00"  79%  87%  44°F  52°F  29.73"
Wed 03:00 AM  52.3°F  57°F  calm  1 mph  none  0.00"  74%  86%  44°F  53°F  29.74"
Wed 02:00 AM  53.4°F  58°F  calm  1 mph  none  0.00"  73%  85%  45°F  53°F  29.76"
Wed 01:00 AM  54.4°F  58°F  calm  1 mph  21 mph  0.00"  72%  84%  45°F  53°F  29.77"
Wed 12:00 AM  54.6°F  59°F  13 mph W  1 mph  24 mph  0.00"  73%  83%  46°F  54°F  29.76"
Tue 11:00 PM  55.7°F  60°F  calm  2 mph  18 mph  0.00"  71%  81%  46°F  54°F  29.79"
Tue 10:00 PM  55.9°F  62°F  3 mph SE  2 mph  17 mph  0.00"  69%  78%  46°F  55°F  29.81"
Tue 09:00 PM  55.3°F  64°F  6 mph W  3 mph  21 mph  0.00"  70%  73%  45°F  55°F  29.81"
Tue 08:00 PM  56.7°F  67°F  7 mph SW  4 mph  21 mph  0.00"  63%  67%  44°F  55°F  29.80"
Tue 07:00 PM  57.7°F  71°F  12 mph SW  5 mph  21 mph  0.00"  61%  57%  44°F  55°F  29.79"
Tue 06:00 PM  60.6°F  76°F  15 mph SW  5 mph  21 mph  0.00"  54%  50%  43°F  55°F  29.81"
Tue 05:00 PM  60.8°F  79°F  6 mph SW  6 mph  20 mph  0.00"  52%  46%  42°F  55°F  29.83"
Tue 04:00 PM  61.7°F  81°F  9 mph SW  6 mph  22 mph  0.00"  52%  43%  43°F  55°F  29.85"
Tue 03:00 PM  64.8°F  81°F  9 mph SW  5 mph  21 mph  0.00"  48%  43%  44°F  56°F  29.87"
Tue 02:00 PM  65.1°F  80°F  5 mph S  4 mph  22 mph  0.00"  47%  43%  43°F  55°F  29.88"
Tue 01:00 PM  65.1°F  78°F  12 mph SW  3 mph  21 mph  0.00"  47%  46%  43°F  55°F  29.90"
Tue 12:00 PM  65.7°F  75°F  9 mph S  3 mph  21 mph  0.00"  48%  51%  45°F  55°F  29.91"
Tue 11:00 AM  65.2°F  72°F  10 mph SW  3 mph  16 mph  0.00"  49%  57%  45°F  55°F  29.92"
Tue 10:00 AM  64.1°F  68°F  8 mph SW  2 mph  15 mph  0.00"  50%  64%  44°F  55°F  29.92"
Tue 09:00 AM  62.9°F  64°F  6 mph S  2 mph  16 mph  0.00"  54%  74%  45°F  55°F  29.93"
Tue 08:00 AM  59.8°F  60°F  2 mph S  1 mph  9 mph  0.00"  60%  83%  45°F  55°F  29.94"
Tue 07:00 AM  51.8°F  56°F  2 mph SE  1 mph  2 mph  0.00"  76%  89%  44°F  53°F  29.96"
Tue 06:00 AM  51.2°F  55°F  calm  1 mph  4 mph  0.00"  76%  88%  44°F  52°F  29.96"
Tue 05:00 AM  52.4°F  56°F  2 mph NE  1 mph  10 mph  0.00"  75%  87%  44°F  52°F  29.96"
Tue 04:00 AM  51.9°F  56°F  2 mph SW  1 mph  9 mph  0.00"  74%  87%  44°F  52°F  29.97"
Tue 03:00 AM  53.4°F  57°F  calm  1 mph  none  0.00"  69%  86%  43°F  52°F  29.98"
Tue 02:00 AM  53.5°F  58°F  calm  1 mph  none  0.00"  72%  84%  44°F  53°F  29.98"

  1. Current weather data. No green row appears if the current weather data is also the high or low for the current day.
  2. High temperature for the current day.
  3. Low temperature for the current day.

The Lake Elsinore, California weather pages are a service of WeatherCurrents. Lake Elsinore is located south of Corona and north of the Temecula Valley, in southwestern Riverside County, California.
Copyright ©2019  WeatherCurrents. All rights reserved. - Submit questions and comments - Privacy Policy

This page automatically refreshes every 10 minutes.